createdAt,value
2023-02-19T00:01:36.121Z,100393.38
2023-02-19T00:04:06.768Z,100397.97
2023-02-19T00:06:35.511Z,100395.81
2023-02-19T00:09:03.579Z,100395.44
2023-02-19T00:11:32.857Z,100407.69
2023-02-19T00:14:02.074Z,100393.63
2023-02-19T00:16:32.013Z,100395.31
2023-02-19T00:19:00.557Z,100392.63
2023-02-19T00:21:28.378Z,100394.91
2023-02-19T00:24:01.125Z,100393.09
2023-02-19T00:26:28.595Z,100381.69
2023-02-19T00:28:56.942Z,100386.25
2023-02-19T00:31:33.159Z,100369.94
2023-02-19T00:34:05.646Z,100390.41
2023-02-19T00:36:36.145Z,100379.81
2023-02-19T00:39:04.101Z,100380.03
2023-02-19T00:41:31.125Z,100389.81
2023-02-19T00:44:00.819Z,100396.44
2023-02-19T00:46:50.589Z,100391.53
2023-02-19T00:49:22.981Z,100388.22
2023-02-19T00:51:52.865Z,100390.69
2023-02-19T00:54:20.370Z,100387.59
2023-02-19T00:56:47.202Z,100392.41
2023-02-19T00:59:15.280Z,100395.34
2023-02-19T01:01:44.471Z,100401.47
2023-02-19T01:04:11.935Z,100398.19
2023-02-19T01:06:38.836Z,100399.97
2023-02-19T01:09:07.752Z,100398.81
2023-02-19T01:11:35.048Z,100395.22
2023-02-19T01:14:03.582Z,100397.03
2023-02-19T01:16:31.118Z,100392.94
2023-02-19T01:18:58.835Z,100389.66
2023-02-19T01:21:27.258Z,100391.00
2023-02-19T01:23:55.535Z,100375.25
2023-02-19T01:26:26.984Z,100385.34
2023-02-19T01:28:54.042Z,100372.78
2023-02-19T01:31:23.403Z,100375.34
2023-02-19T01:33:53.677Z,100376.19
2023-02-19T01:36:21.204Z,100378.13
2023-02-19T01:38:49.738Z,100377.00
2023-02-19T01:41:19.928Z,100374.38
2023-02-19T01:44:05.301Z,100383.25
2023-02-19T01:46:34.445Z,100385.34
2023-02-19T01:49:14.161Z,100397.81
2023-02-19T01:51:45.192Z,100370.44
2023-02-19T01:54:15.005Z,100367.41
2023-02-19T01:56:44.154Z,100384.38
2023-02-19T01:59:11.491Z,100383.06
2023-02-19T02:01:39.346Z,100382.41
2023-02-19T02:04:10.914Z,100376.66
2023-02-19T02:06:56.461Z,100364.97
2023-02-19T02:09:46.534Z,100364.50
2023-02-19T02:12:13.751Z,100359.59
2023-02-19T02:14:45.476Z,100354.88
2023-02-19T02:17:12.252Z,100373.94
2023-02-19T02:20:10.073Z,100365.56
2023-02-19T02:22:53.522Z,100359.06
2023-02-19T02:25:48.214Z,100332.34
2023-02-19T02:28:26.001Z,100332.69
2023-02-19T02:30:56.739Z,100345.25
2023-02-19T02:33:50.174Z,100357.03
2023-02-19T02:36:20.387Z,100354.13
2023-02-19T02:38:49.090Z,100350.53
2023-02-19T02:41:16.632Z,100348.28
2023-02-19T02:43:43.575Z,100355.09
2023-02-19T02:46:12.176Z,100362.59
2023-02-19T02:48:46.435Z,100356.56
2023-02-19T02:51:20.633Z,100359.69
2023-02-19T02:54:35.082Z,100362.59
2023-02-19T02:57:03.529Z,100371.19
2023-02-19T02:59:37.132Z,100372.63
2023-02-19T03:02:19.192Z,100370.94
2023-02-19T03:05:25.469Z,100370.84
2023-02-19T03:08:15.343Z,100381.94
2023-02-19T03:11:24.005Z,100377.97
2023-02-19T03:14:22.963Z,100376.28
2023-02-19T03:17:15.333Z,100373.56
2023-02-19T03:19:45.745Z,100371.78
2023-02-19T03:22:22.558Z,100371.47
2023-02-19T03:25:15.337Z,100367.53
2023-02-19T03:27:44.705Z,100375.16
2023-02-19T03:30:23.110Z,100376.38
2023-02-19T03:33:01.811Z,100393.28
2023-02-19T03:35:34.973Z,100389.59
2023-02-19T03:38:09.444Z,100380.72
2023-02-19T03:40:46.218Z,100376.66
2023-02-19T03:43:18.408Z,100378.19
2023-02-19T03:45:55.220Z,100384.69
2023-02-19T03:48:30.849Z,100388.75
2023-02-19T03:51:20.610Z,100393.44
2023-02-19T03:54:02.694Z,100396.47
2023-02-19T03:56:50.387Z,100394.75
2023-02-19T03:59:28.405Z,100392.44
2023-02-19T04:02:08.337Z,100383.94
2023-02-19T04:04:39.612Z,100381.03
2023-02-19T04:07:07.286Z,100383.84
2023-02-19T04:09:38.700Z,100374.38
2023-02-19T04:12:07.061Z,100377.13
2023-02-19T04:14:43.122Z,100381.94
2023-02-19T04:17:16.782Z,100384.78
2023-02-19T04:19:44.926Z,100381.75
2023-02-19T04:22:13.068Z,100387.41
2023-02-19T04:24:51.997Z,100386.09
2023-02-19T04:27:19.679Z,100389.84
2023-02-19T04:29:46.494Z,100386.47
2023-02-19T04:32:14.342Z,100394.00
2023-02-19T04:34:41.159Z,100387.66
2023-02-19T04:37:08.349Z,100391.72
2023-02-19T04:39:35.148Z,100381.41
2023-02-19T04:42:02.402Z,100378.41
2023-02-19T04:44:29.208Z,100383.53
2023-02-19T04:46:56.283Z,100385.09
2023-02-19T04:49:23.141Z,100375.84
2023-02-19T04:51:50.244Z,100376.59
2023-02-19T04:54:17.015Z,100379.72
2023-02-19T04:56:44.106Z,100380.94
2023-02-19T04:59:10.936Z,100375.03
2023-02-19T05:01:38.037Z,100368.16
2023-02-19T05:04:05.302Z,100360.06
2023-02-19T05:06:32.461Z,100371.81
2023-02-19T05:08:59.258Z,100368.31
2023-02-19T05:11:26.592Z,100360.16
2023-02-19T05:13:55.477Z,100359.84
2023-02-19T05:16:22.637Z,100366.91
2023-02-19T05:18:49.474Z,100375.19
2023-02-19T05:21:16.538Z,100374.19
2023-02-19T05:23:43.332Z,100369.41
2023-02-19T05:26:17.885Z,100384.84
2023-02-19T05:28:46.252Z,100377.31
2023-02-19T05:31:14.406Z,100380.97
2023-02-19T05:33:43.167Z,100386.44
2023-02-19T05:36:13.241Z,100383.13
2023-02-19T05:38:41.088Z,100382.09
2023-02-19T05:41:19.346Z,100386.06
2023-02-19T05:43:48.337Z,100370.88
2023-02-19T05:46:17.783Z,100371.34
2023-02-19T05:48:44.566Z,100365.53
2023-02-19T05:51:14.929Z,100376.34
2023-02-19T05:53:43.035Z,100365.97
2023-02-19T05:56:40.517Z,100380.38
2023-02-19T05:59:19.647Z,100370.69
2023-02-19T06:01:47.758Z,100378.75
2023-02-19T06:04:15.760Z,100389.97
2023-02-19T06:06:43.471Z,100381.88
2023-02-19T06:09:10.941Z,100397.06
2023-02-19T06:11:38.837Z,100398.47
2023-02-19T06:14:06.435Z,100406.19
2023-02-19T06:16:34.466Z,100390.81
2023-02-19T06:19:05.002Z,100388.44
2023-02-19T06:21:32.322Z,100386.94
2023-02-19T06:23:59.242Z,100368.69
2023-02-19T06:26:26.493Z,100359.44
2023-02-19T06:28:54.016Z,100349.13
2023-02-19T06:31:22.828Z,100367.53
2023-02-19T06:33:50.789Z,100366.88
2023-02-19T06:36:20.538Z,100363.50
2023-02-19T06:38:47.383Z,100355.34
2023-02-19T06:41:14.859Z,100352.31
2023-02-19T06:43:42.435Z,100352.19
2023-02-19T06:46:12.023Z,100349.28
2023-02-19T06:48:40.054Z,100350.78
2023-02-19T06:51:14.573Z,100356.25
2023-02-19T06:53:41.482Z,100361.94
2023-02-19T06:56:22.472Z,100367.31
2023-02-19T06:58:49.218Z,100362.78
2023-02-19T07:01:16.298Z,100360.00
2023-02-19T07:03:43.241Z,100354.81
2023-02-19T07:06:10.345Z,100366.38
2023-02-19T07:08:37.153Z,100371.13
2023-02-19T07:11:04.343Z,100377.94
2023-02-19T07:13:31.385Z,100369.34
2023-02-19T07:16:00.843Z,100380.97
2023-02-19T07:18:28.274Z,100373.25
2023-02-19T07:20:55.402Z,100373.34
2023-02-19T07:23:22.173Z,100372.47
2023-02-19T07:25:49.210Z,100364.56
2023-02-19T07:28:16.470Z,100359.66
2023-02-19T07:30:43.544Z,100359.66
2023-02-19T07:33:10.948Z,100358.91
2023-02-19T07:35:38.006Z,100358.19
2023-02-19T07:38:04.750Z,100359.03
2023-02-19T07:40:31.810Z,100346.72
2023-02-19T07:43:00.544Z,100352.84
2023-02-19T07:45:27.705Z,100340.47
2023-02-19T07:47:54.518Z,100350.81
2023-02-19T07:50:21.684Z,100343.69
2023-02-19T07:52:48.539Z,100349.72
2023-02-19T07:55:15.665Z,100358.66
2023-02-19T07:57:42.508Z,100352.88
2023-02-19T08:00:10.160Z,100362.38
2023-02-19T08:02:55.513Z,100363.56
2023-02-19T08:05:22.709Z,100378.50
2023-02-19T08:07:49.485Z,100379.97
2023-02-19T08:10:35.170Z,100376.38
2023-02-19T08:13:22.486Z,100389.47
2023-02-19T08:15:51.534Z,100376.06
2023-02-19T08:18:22.869Z,100373.50
2023-02-19T08:20:50.058Z,100383.78
2023-02-19T08:23:17.276Z,100379.53
2023-02-19T08:25:44.469Z,100386.09
2023-02-19T08:28:11.951Z,100391.59
2023-02-19T08:30:41.356Z,100395.09
2023-02-19T08:33:08.470Z,100401.13
2023-02-19T08:35:36.707Z,100402.41
2023-02-19T08:38:05.605Z,100402.91
2023-02-19T08:40:33.619Z,100400.00
2023-02-19T08:43:09.048Z,100379.78
2023-02-19T08:45:37.866Z,100367.72
2023-02-19T08:48:05.302Z,100370.97
2023-02-19T08:50:32.997Z,100379.63
2023-02-19T08:53:00.698Z,100378.78
2023-02-19T08:55:27.892Z,100372.34
2023-02-19T08:57:55.054Z,100375.19
2023-02-19T09:00:22.922Z,100374.97
2023-02-19T09:02:50.285Z,100372.06
2023-02-19T09:05:17.486Z,100374.72
2023-02-19T09:07:44.400Z,100379.69
2023-02-19T09:10:13.438Z,100378.59
2023-02-19T09:12:43.340Z,100382.19
2023-02-19T09:15:13.396Z,100373.94
2023-02-19T09:17:40.174Z,100370.53
2023-02-19T09:20:07.570Z,100361.44
2023-02-19T09:22:35.061Z,100360.75
2023-02-19T09:25:02.156Z,100365.78
2023-02-19T09:27:31.702Z,100364.56
2023-02-19T09:29:59.190Z,100370.78
2023-02-19T09:32:26.032Z,100376.56
2023-02-19T09:34:53.071Z,100365.66
2023-02-19T09:37:19.822Z,100372.47
2023-02-19T09:39:46.854Z,100357.59
2023-02-19T09:42:16.251Z,100360.19
2023-02-19T09:44:48.307Z,100345.34
2023-02-19T09:47:35.620Z,100350.44
2023-02-19T09:50:09.746Z,100342.13
2023-02-19T09:52:36.615Z,100343.28
2023-02-19T09:55:28.180Z,100341.03
2023-02-19T09:57:56.597Z,100329.84
2023-02-19T10:00:31.120Z,100323.69
2023-02-19T10:03:02.795Z,100323.41
2023-02-19T10:05:30.168Z,100312.38
2023-02-19T10:07:58.009Z,100311.69
2023-02-19T10:10:34.672Z,100298.56
2023-02-19T10:13:19.732Z,100296.81
2023-02-19T10:15:50.731Z,100281.50
2023-02-19T10:18:23.567Z,100291.81
2023-02-19T10:20:52.568Z,100292.97
2023-02-19T10:23:19.661Z,100284.53
2023-02-19T10:25:54.881Z,100273.81
2023-02-19T10:28:24.581Z,100285.72
2023-02-19T10:30:55.411Z,100265.75
2023-02-19T10:33:23.250Z,100257.81
2023-02-19T10:35:56.512Z,100241.56
2023-02-19T10:38:39.260Z,100230.56
2023-02-19T10:41:12.735Z,100242.13
2023-02-19T10:43:43.815Z,100235.28
2023-02-19T10:46:21.615Z,100229.00
2023-02-19T10:49:00.496Z,100220.72
2023-02-19T10:51:36.352Z,100230.66
2023-02-19T10:54:07.654Z,100224.22
2023-02-19T10:56:35.025Z,100202.03
2023-02-19T10:59:22.992Z,100203.44
2023-02-19T11:02:15.829Z,100194.22
2023-02-19T11:05:01.748Z,100189.63
2023-02-19T11:07:29.225Z,100181.81
2023-02-19T11:09:57.069Z,100181.66
2023-02-19T11:12:27.449Z,100182.78
2023-02-19T11:14:54.453Z,100161.19
2023-02-19T11:17:27.648Z,100176.31
2023-02-19T11:19:58.462Z,100167.63
2023-02-19T11:22:40.066Z,100179.84
2023-02-19T11:25:15.360Z,100139.06
2023-02-19T11:28:08.063Z,100151.34
2023-02-19T11:30:39.483Z,100154.69
2023-02-19T11:33:24.806Z,100148.81
2023-02-19T11:35:59.068Z,100156.88
2023-02-19T11:38:26.370Z,100140.09
2023-02-19T11:41:19.718Z,100150.38
2023-02-19T11:43:58.687Z,100131.53
2023-02-19T11:46:49.095Z,100134.16
2023-02-19T11:49:43.441Z,100150.16
2023-02-19T11:52:30.916Z,100134.84
2023-02-19T11:55:22.031Z,100133.78
2023-02-19T11:58:03.018Z,100136.44
2023-02-19T12:00:33.144Z,100132.09
2023-02-19T12:03:29.102Z,100117.19
2023-02-19T12:06:09.427Z,100120.22
2023-02-19T12:08:57.957Z,100110.22
2023-02-19T12:11:25.142Z,100127.25
2023-02-19T12:14:19.850Z,100110.75
2023-02-19T12:16:59.839Z,100113.47
2023-02-19T12:19:26.588Z,100112.06
2023-02-19T12:21:54.375Z,100111.91
2023-02-19T12:24:50.381Z,100107.78
2023-02-19T12:27:26.266Z,100111.59
2023-02-19T12:30:20.700Z,100110.94
2023-02-19T12:33:19.178Z,100124.72
2023-02-19T12:36:04.226Z,100127.06
2023-02-19T12:38:44.305Z,100137.28
2023-02-19T12:41:29.553Z,100125.56
2023-02-19T12:44:04.394Z,100126.00
2023-02-19T12:46:47.280Z,100135.97
2023-02-19T12:49:37.290Z,100128.91
2023-02-19T12:52:11.591Z,100173.97
2023-02-19T12:54:42.118Z,100149.50
2023-02-19T12:57:08.894Z,100145.94
2023-02-19T13:00:18.711Z,100149.88
2023-02-19T13:02:51.983Z,100154.69
2023-02-19T13:05:32.790Z,100161.09
2023-02-19T13:08:04.754Z,100153.47
2023-02-19T13:10:55.030Z,100151.22
2023-02-19T13:14:06.394Z,100141.25
2023-02-19T13:16:38.315Z,100134.94
2023-02-19T13:19:05.511Z,100142.00
2023-02-19T13:21:54.855Z,100156.63
2023-02-19T13:24:27.681Z,100156.41
2023-02-19T13:27:03.789Z,100152.53
2023-02-19T13:29:55.633Z,100166.41
2023-02-19T13:32:37.977Z,100167.75
2023-02-19T13:35:11.587Z,100149.88
2023-02-19T13:37:39.031Z,100145.78
2023-02-19T13:40:36.743Z,100155.97
2023-02-19T13:43:07.797Z,100164.56
2023-02-19T13:45:42.216Z,100173.53
2023-02-19T13:48:24.257Z,100177.38
2023-02-19T13:51:17.316Z,100165.63
2023-02-19T13:53:51.663Z,100176.53
2023-02-19T13:56:36.822Z,100168.56
2023-02-19T13:59:25.112Z,100177.44
2023-02-19T14:01:51.936Z,100187.38
2023-02-19T14:04:40.114Z,100196.81
2023-02-19T14:07:06.862Z,100204.56
2023-02-19T14:09:44.037Z,100219.72
2023-02-19T14:12:10.884Z,100224.03
2023-02-19T14:14:37.984Z,100228.75
2023-02-19T14:17:12.534Z,100234.03
2023-02-19T14:19:42.569Z,100247.59
2023-02-19T14:23:01.673Z,100232.94
2023-02-19T14:25:31.449Z,100235.09
2023-02-19T14:28:10.131Z,100259.69
2023-02-19T14:30:48.806Z,100266.50
2023-02-19T14:33:23.898Z,100269.03
2023-02-19T14:35:56.676Z,100285.56
2023-02-19T14:38:38.287Z,100285.44
2023-02-19T14:41:06.782Z,100289.03
2023-02-19T14:43:35.841Z,100291.97
2023-02-19T14:46:23.095Z,100292.34
2023-02-19T14:48:50.797Z,100286.81
2023-02-19T14:52:05.781Z,100288.59
2023-02-19T14:54:50.616Z,100278.97
2023-02-19T14:57:22.238Z,100281.28
2023-02-19T15:00:22.164Z,100279.31
2023-02-19T15:02:51.498Z,100276.09
2023-02-19T15:05:23.427Z,100285.22
2023-02-19T15:07:53.072Z,100286.88
2023-02-19T15:10:20.148Z,100280.94
2023-02-19T15:12:57.591Z,100286.16
2023-02-19T15:15:33.033Z,100306.44
2023-02-19T15:18:01.954Z,100306.09
2023-02-19T15:20:37.890Z,100302.88
2023-02-19T15:23:07.339Z,100294.00
2023-02-19T15:25:36.729Z,100293.00
2023-02-19T15:28:25.839Z,100290.25
2023-02-19T15:30:58.626Z,100282.34
2023-02-19T15:33:27.838Z,100268.47
2023-02-19T15:35:57.824Z,100268.84
2023-02-19T15:38:25.634Z,100277.91
2023-02-19T15:40:53.212Z,100260.28
2023-02-19T15:43:44.508Z,100258.03
2023-02-19T15:46:19.584Z,100274.59
2023-02-19T15:48:58.433Z,100278.28
2023-02-19T15:51:50.049Z,100288.25
2023-02-19T15:54:26.984Z,100306.34
2023-02-19T15:57:00.253Z,100316.88
2023-02-19T15:59:42.257Z,100324.06
2023-02-19T16:02:14.316Z,100314.34
2023-02-19T16:04:45.221Z,100327.44
2023-02-19T16:07:29.181Z,100336.38
2023-02-19T16:10:16.793Z,100334.03
2023-02-19T16:12:43.748Z,100337.41
2023-02-19T16:15:20.713Z,100342.13
2023-02-19T16:17:47.803Z,100352.09
2023-02-19T16:20:24.568Z,100337.34
2023-02-19T16:22:52.386Z,100339.22
2023-02-19T16:25:44.502Z,100346.06
2023-02-19T16:28:22.310Z,100379.53
2023-02-19T16:31:00.717Z,100363.66
2023-02-19T16:33:40.980Z,100369.13
2023-02-19T16:36:46.314Z,100384.34
2023-02-19T16:39:16.262Z,100384.38
2023-02-19T16:41:46.592Z,100390.50
2023-02-19T16:44:25.872Z,100381.00
2023-02-19T16:46:57.974Z,100383.75
2023-02-19T16:49:24.863Z,100369.13
2023-02-19T16:51:52.386Z,100360.53
2023-02-19T16:54:19.167Z,100365.78
2023-02-19T16:56:46.273Z,100377.94
2023-02-19T16:59:13.070Z,100368.94
2023-02-19T17:01:40.202Z,100380.59
2023-02-19T17:04:10.141Z,100383.56
2023-02-19T17:06:40.474Z,100394.78
2023-02-19T17:09:08.688Z,100400.69
2023-02-19T17:11:38.615Z,100392.03
2023-02-19T17:14:05.450Z,100395.19
2023-02-19T17:16:40.241Z,100405.13
2023-02-19T17:19:18.269Z,100411.00
2023-02-19T17:21:46.715Z,100402.66
2023-02-19T17:24:13.969Z,100399.19
2023-02-19T17:26:41.499Z,100388.75
2023-02-19T17:29:15.005Z,100403.44
2023-02-19T17:31:42.069Z,100416.50
2023-02-19T17:34:09.039Z,100413.72
2023-02-19T17:36:38.059Z,100422.91
2023-02-19T17:39:12.017Z,100411.19
2023-02-19T17:41:39.171Z,100430.88
2023-02-19T17:44:05.914Z,100437.78
2023-02-19T17:46:34.000Z,100451.03
2023-02-19T17:49:00.823Z,100457.69
2023-02-19T17:51:28.399Z,100448.00
2023-02-19T17:53:55.170Z,100438.47
2023-02-19T17:56:25.459Z,100452.88
2023-02-19T17:58:53.506Z,100465.25
2023-02-19T18:01:21.552Z,100456.06
2023-02-19T18:03:48.379Z,100460.38
2023-02-19T18:06:15.588Z,100467.88
2023-02-19T18:08:50.867Z,100479.47
2023-02-19T18:11:19.084Z,100487.44
2023-02-19T18:13:46.155Z,100475.22
2023-02-19T18:16:15.631Z,100506.78
2023-02-19T18:18:43.014Z,100496.09
2023-02-19T18:21:11.674Z,100495.25
2023-02-19T18:23:39.305Z,100509.25
2023-02-19T18:26:11.159Z,100522.78
2023-02-19T18:28:38.666Z,100526.97
2023-02-19T18:31:06.246Z,100533.00
2023-02-19T18:33:34.784Z,100540.88
2023-02-19T18:36:05.035Z,100545.22
2023-02-19T18:38:32.048Z,100552.44
2023-02-19T18:40:59.138Z,100567.56
2023-02-19T18:43:26.100Z,100562.19
2023-02-19T18:45:53.287Z,100577.56
2023-02-19T18:48:20.186Z,100570.84
2023-02-19T18:50:47.510Z,100569.78
2023-02-19T18:53:14.423Z,100588.34
2023-02-19T18:55:41.724Z,100595.25
2023-02-19T18:58:08.633Z,100597.31
2023-02-19T19:00:35.958Z,100607.16
2023-02-19T19:03:02.802Z,100602.03
2023-02-19T19:05:30.133Z,100598.91
2023-02-19T19:07:59.465Z,100609.47
2023-02-19T19:10:26.834Z,100598.13
2023-02-19T19:12:54.410Z,100598.97
2023-02-19T19:15:22.461Z,100583.94
2023-02-19T19:17:49.628Z,100584.97
2023-02-19T19:20:21.808Z,100572.03
2023-02-19T19:22:51.846Z,100580.09
2023-02-19T19:25:21.892Z,100570.88
2023-02-19T19:27:52.137Z,100567.16
2023-02-19T19:30:20.234Z,100548.06
2023-02-19T19:32:52.092Z,100572.13
2023-02-19T19:35:20.544Z,100562.81
2023-02-19T19:37:47.718Z,100585.03
2023-02-19T19:40:17.492Z,100569.22
2023-02-19T19:42:44.747Z,100579.84
2023-02-19T19:45:12.456Z,100597.19
2023-02-19T19:47:39.328Z,100607.69
2023-02-19T19:50:06.665Z,100599.81
2023-02-19T19:52:33.512Z,100610.38
2023-02-19T19:55:00.859Z,100618.19
2023-02-19T19:57:27.646Z,100626.84
2023-02-19T19:59:54.778Z,100636.66
2023-02-19T20:02:22.803Z,100641.50
2023-02-19T20:04:50.186Z,100647.53
2023-02-19T20:07:17.100Z,100673.00
2023-02-19T20:09:47.677Z,100696.19
2023-02-19T20:12:14.510Z,100688.59
2023-02-19T20:14:45.767Z,100693.13
2023-02-19T20:17:13.108Z,100705.13
2023-02-19T20:19:40.263Z,100705.06
2023-02-19T20:22:07.100Z,100709.31
2023-02-19T20:24:34.286Z,100717.78
2023-02-19T20:27:02.842Z,100732.69
2023-02-19T20:29:33.079Z,100729.44
2023-02-19T20:32:00.561Z,100734.81
2023-02-19T20:34:28.243Z,100735.53
2023-02-19T20:36:55.162Z,100748.25
2023-02-19T20:39:22.681Z,100765.34
2023-02-19T20:41:51.853Z,100768.81
2023-02-19T20:44:19.386Z,100771.44
2023-02-19T20:46:52.212Z,100768.56
2023-02-19T20:49:22.306Z,100777.50
2023-02-19T20:52:00.881Z,100764.69
2023-02-19T20:54:30.470Z,100776.34
2023-02-19T20:57:00.643Z,100781.84
2023-02-19T20:59:31.289Z,100781.38
2023-02-19T21:01:59.002Z,100793.84
2023-02-19T21:04:26.674Z,100784.53
2023-02-19T21:06:53.574Z,100788.09
2023-02-19T21:09:21.986Z,100781.81
2023-02-19T21:11:49.227Z,100793.91
2023-02-19T21:14:16.807Z,100794.13
2023-02-19T21:16:43.836Z,100794.13
2023-02-19T21:19:11.088Z,100778.75
2023-02-19T21:21:40.232Z,100795.09
2023-02-19T21:24:08.907Z,100792.75
2023-02-19T21:26:38.041Z,100805.97
2023-02-19T21:29:07.284Z,100799.41
2023-02-19T21:31:40.250Z,100788.06
2023-02-19T21:34:09.821Z,100806.56
2023-02-19T21:36:36.998Z,100796.41
2023-02-19T21:39:06.429Z,100803.66
2023-02-19T21:41:33.534Z,100798.63
2023-02-19T21:44:00.753Z,100785.66
2023-02-19T21:46:27.827Z,100777.00
2023-02-19T21:48:56.105Z,100785.06
2023-02-19T21:51:29.507Z,100794.53
2023-02-19T21:53:56.627Z,100773.81
2023-02-19T21:56:35.072Z,100786.31
2023-02-19T21:59:06.102Z,100786.25
2023-02-19T22:01:38.548Z,100784.78
2023-02-19T22:04:07.192Z,100790.81
2023-02-19T22:06:34.807Z,100793.38
2023-02-19T22:09:01.986Z,100799.72
2023-02-19T22:11:29.040Z,100807.50
2023-02-19T22:13:56.128Z,100813.19
2023-02-19T22:16:23.727Z,100809.72
2023-02-19T22:18:55.985Z,100823.84
2023-02-19T22:21:25.035Z,100835.22
2023-02-19T22:23:53.673Z,100844.91
2023-02-19T22:26:29.006Z,100843.75
2023-02-19T22:28:56.556Z,100852.75
2023-02-19T22:31:24.838Z,100860.72
2023-02-19T22:33:52.328Z,100868.88
2023-02-19T22:36:22.251Z,100875.13
2023-02-19T22:38:49.839Z,100878.53
2023-02-19T22:41:17.772Z,100874.28
2023-02-19T22:43:45.334Z,100888.88
2023-02-19T22:46:15.694Z,100897.75
2023-02-19T22:48:42.931Z,100881.28
2023-02-19T22:51:15.027Z,100887.13
2023-02-19T22:53:52.442Z,100894.41
2023-02-19T22:56:21.133Z,100881.41
2023-02-19T22:58:48.497Z,100904.19
2023-02-19T23:01:15.896Z,100904.09
2023-02-19T23:03:54.983Z,100923.81
2023-02-19T23:06:30.333Z,100926.06
2023-02-19T23:09:01.945Z,100932.22
2023-02-19T23:11:32.380Z,100948.91
2023-02-19T23:13:59.808Z,100947.22
2023-02-19T23:16:27.041Z,100964.44
2023-02-19T23:18:54.595Z,100963.66
2023-02-19T23:21:22.824Z,100961.41
2023-02-19T23:23:50.465Z,100972.66
2023-02-19T23:26:17.319Z,100983.03
2023-02-19T23:28:45.040Z,100977.69
2023-02-19T23:31:13.055Z,100987.63
2023-02-19T23:33:40.341Z,100990.19
2023-02-19T23:36:08.401Z,100992.94
2023-02-19T23:38:35.774Z,100994.81
2023-02-19T23:41:03.492Z,100999.19
2023-02-19T23:43:30.536Z,100997.81
2023-02-19T23:45:57.458Z,100997.00
2023-02-19T23:48:24.520Z,101015.34
2023-02-19T23:50:51.601Z,101013.06
2023-02-19T23:53:18.719Z,101012.19
2023-02-19T23:55:45.492Z,101029.00
2023-02-19T23:58:12.666Z,101026.19
